Martha, Kentucky
Current Conditions -  °F | °C
As of 12:15 AM on Tuesday 23 Dec 2014 (Local Time) from KSJS Reporting Station
Broken Clouds Broken Clouds  
Wind Chill: 51°   Ceiling: 12000
Heat Index: 51°   Visibility: 10mi
Dew Point: 40°   Wind: 10mph
Humidity: 66%   Direction: 140°SE
Pressure: 29.8"   Gusts: NA
Location:  38.01°N, 82.91°W
Report Text: KSJS 230515Z AUTO 14009KT 10SM SCT070 SCT085 BKN120 11/05 A2980 RMK AO2 T01060045
Loading
Personal Weather Stations






























Interactive Weather Map New forecast layout! Learn more

10-Day Weather Forecast

Advertisements
Track Severe Weather on mobile